ELF weather

El Fasher Airport
El Fasher, North Darfur State, Sudan

Public forecast

Using degrees Celsius for public forecast. Weather courtesy of forecast.io.

Closest aviation weather report (METAR) to El Fasher Airport

Report is more than 2 hours old.

Closest report is Nyala Airport, 96.2 nm (178.2 km) SSW. Retrieved 2019/10/18 11:00 UTC (2 hours ago):

HSNN 181100Z 07005KT 8000 33/19 Q1011

Aviation forecast (TAF) for El Fasher Airport

Forecast is more than 12 hours old.

Retrieved 2011/08/16 09:00 UTC (8 years ago):

TAF HSFS 160700Z 1609/1618 VRB03KT 9/9 SCT040 BKN140 TEMPO 1609/1615 6000 TSRA FEW045CB